aviador You're here:

PALG Decoded Metar

KALSKAG in AK, USA
Report Time2017-11-24 23:56:00
UTC Time2017-11-25 00:16:22
Flight Rules unknown UNKNOWN
Wind290° at 03 kt
W.Decomp.*RWY 24: 2.5 kt HW 1.6 kt RCW
W.Rank290° ranks 17
Current wind is below 290° avg. (5.3)
VisibilityN/A
Phenomena:N/A
Clouds:Overcast 050 Hf
Expected CloudBase > 800 ft AGL from Temp-Dew spread
Ceiling5,000 ft
Temp-7°C (ISA -22)
Dew Point-9°C (86% RH)
AAT-11.1°C
QNH1019 hPa
Density Alt-2,825 ft
Elevation56 ft
Report Wrong Elevation
Raw Report
PALG 242356Z AUTO 29003KT OVC050 M07/M09 A3010 RMK AO2 SLP197
T10721089 11067 21078 53002 PWINO FZRANO $=

Extra information for PALG:More info

Metar Taf Metar & Taf Last 4 Metars F.Rules Stats Wind Profile Meteogram Temp Stats Airport Information Weather charts Add Link Nearby VenuesMetar ALERT Operation Metar Decoded Social comments

AIRNAV info for PALG